sensor_id;sensor_type;location;lat;lon;timestamp;P1;durP1;ratioP1;P2;durP2;ratioP2
77016;SDS011;65949;53.132;17.930;2023-07-08T00:01:15;11.10;;;3.50;;
77016;SDS011;65949;53.132;17.930;2023-07-08T00:03:46;8.80;;;2.80;;
77016;SDS011;65949;53.132;17.930;2023-07-08T00:06:16;7.10;;;2.50;;
77016;SDS011;65949;53.132;17.930;2023-07-08T00:08:45;7.40;;;2.50;;
77016;SDS011;65949;53.132;17.930;2023-07-08T00:11:13;9.50;;;2.80;;
77016;SDS011;65949;53.132;17.930;2023-07-08T00:13:41;6.70;;;3.10;;
77016;SDS011;65949;53.132;17.930;2023-07-08T00:16:11;9.40;;;2.80;;
77016;SDS011;65949;53.132;17.930;2023-07-08T00:18:40;7.10;;;3.10;;
77016;SDS011;65949;53.132;17.930;2023-07-08T00:21:11;9.10;;;3.10;;
77016;SDS011;65949;53.132;17.930;2023-07-08T00:23:45;6.90;;;3.10;;
77016;SDS011;65949;53.132;17.930;2023-07-08T00:26:22;6.70;;;2.80;;
77016;SDS011;65949;53.132;17.930;2023-07-08T00:28:51;8.90;;;2.80;;
77016;SDS011;65949;53.132;17.930;2023-07-08T00:31:20;8.50;;;3.10;;
77016;SDS011;65949;53.132;17.930;2023-07-08T00:33:50;9.10;;;2.90;;
77016;SDS011;65949;53.132;17.930;2023-07-08T00:36:16;8.30;;;3.10;;
77016;SDS011;65949;53.132;17.930;2023-07-08T00:38:44;6.50;;;3.20;;
77016;SDS011;65949;53.132;17.930;2023-07-08T00:41:16;6.10;;;2.70;;
77016;SDS011;65949;53.132;17.930;2023-07-08T00:43:48;6.60;;;3.10;;
77016;SDS011;65949;53.132;17.930;2023-07-08T00:48:55;7.40;;;3.00;;
77016;SDS011;65949;53.132;17.930;2023-07-08T00:51:36;7.30;;;3.20;;
77016;SDS011;65949;53.132;17.930;2023-07-08T00:54:11;8.40;;;2.90;;
77016;SDS011;65949;53.132;17.930;2023-07-08T00:59:21;6.60;;;2.90;;
77016;SDS011;65949;53.132;17.930;2023-07-08T01:01:55;7.90;;;3.30;;
77016;SDS011;65949;53.132;17.930;2023-07-08T01:04:29;8.00;;;3.60;;
77016;SDS011;65949;53.132;17.930;2023-07-08T01:06:59;9.40;;;3.30;;
77016;SDS011;65949;53.132;17.930;2023-07-08T01:09:34;7.10;;;2.70;;
77016;SDS011;65949;53.132;17.930;2023-07-08T01:12:14;8.10;;;3.30;;
77016;SDS011;65949;53.132;17.930;2023-07-08T01:14:45;10.20;;;3.00;;
77016;SDS011;65949;53.132;17.930;2023-07-08T01:17:14;7.40;;;3.40;;
77016;SDS011;65949;53.132;17.930;2023-07-08T01:19:41;8.40;;;3.00;;
77016;SDS011;65949;53.132;17.930;2023-07-08T01:22:10;9.50;;;3.10;;
77016;SDS011;65949;53.132;17.930;2023-07-08T01:24:38;9.20;;;3.20;;
77016;SDS011;65949;53.132;17.930;2023-07-08T01:27:12;7.80;;;3.10;;
77016;SDS011;65949;53.132;17.930;2023-07-08T01:29:42;7.90;;;3.20;;
77016;SDS011;65949;53.132;17.930;2023-07-08T01:32:11;6.70;;;2.90;;
77016;SDS011;65949;53.132;17.930;2023-07-08T01:34:40;9.40;;;3.00;;
77016;SDS011;65949;53.132;17.930;2023-07-08T01:37:09;7.80;;;3.10;;
77016;SDS011;65949;53.132;17.930;2023-07-08T01:39:37;11.40;;;3.20;;
77016;SDS011;65949;53.132;17.930;2023-07-08T01:42:04;7.30;;;3.20;;
77016;SDS011;65949;53.132;17.930;2023-07-08T01:44:32;8.40;;;3.90;;
77016;SDS011;65949;53.132;17.930;2023-07-08T01:47:02;8.90;;;3.40;;
77016;SDS011;65949;53.132;17.930;2023-07-08T01:49:37;8.10;;;3.10;;
77016;SDS011;65949;53.132;17.930;2023-07-08T01:52:06;7.40;;;3.20;;
77016;SDS011;65949;53.132;17.930;2023-07-08T01:54:35;8.30;;;3.50;;
77016;SDS011;65949;53.132;17.930;2023-07-08T01:57:01;7.70;;;3.10;;
77016;SDS011;65949;53.132;17.930;2023-07-08T01:59:29;6.80;;;2.90;;
77016;SDS011;65949;53.132;17.930;2023-07-08T02:01:56;8.70;;;3.20;;
77016;SDS011;65949;53.132;17.930;2023-07-08T02:04:24;7.30;;;3.20;;
77016;SDS011;65949;53.132;17.930;2023-07-08T02:06:55;8.40;;;3.30;;
77016;SDS011;65949;53.132;17.930;2023-07-08T02:09:25;7.40;;;3.40;;
77016;SDS011;65949;53.132;17.930;2023-07-08T02:11:52;8.70;;;3.70;;
77016;SDS011;65949;53.132;17.930;2023-07-08T02:14:20;8.10;;;3.80;;
77016;SDS011;65949;53.132;17.930;2023-07-08T02:16:47;8.50;;;3.60;;
77016;SDS011;65949;53.132;17.930;2023-07-08T02:19:14;8.70;;;3.90;;
77016;SDS011;65949;53.132;17.930;2023-07-08T02:21:40;7.40;;;3.60;;
77016;SDS011;65949;53.132;17.930;2023-07-08T02:24:07;8.70;;;3.60;;
77016;SDS011;65949;53.132;17.930;2023-07-08T02:26:35;8.10;;;3.30;;
77016;SDS011;65949;53.132;17.930;2023-07-08T02:29:02;6.40;;;3.40;;
77016;SDS011;65949;53.132;17.930;2023-07-08T02:31:30;7.10;;;3.40;;
77016;SDS011;65949;53.132;17.930;2023-07-08T02:33:57;6.90;;;3.30;;
77016;SDS011;65949;53.132;17.930;2023-07-08T02:36:24;6.90;;;3.20;;
77016;SDS011;65949;53.132;17.930;2023-07-08T02:38:50;9.10;;;3.20;;
77016;SDS011;65949;53.132;17.930;2023-07-08T02:41:17;6.80;;;3.60;;
77016;SDS011;65949;53.132;17.930;2023-07-08T02:43:44;8.20;;;4.10;;
77016;SDS011;65949;53.132;17.930;2023-07-08T02:46:10;7.10;;;3.70;;
77016;SDS011;65949;53.132;17.930;2023-07-08T02:48:38;7.90;;;3.40;;
77016;SDS011;65949;53.132;17.930;2023-07-08T02:51:06;6.70;;;3.60;;
77016;SDS011;65949;53.132;17.930;2023-07-08T02:53:35;8.70;;;4.10;;
77016;SDS011;65949;53.132;17.930;2023-07-08T02:56:02;7.20;;;3.80;;
77016;SDS011;65949;53.132;17.930;2023-07-08T02:58:29;7.10;;;3.00;;
77016;SDS011;65949;53.132;17.930;2023-07-08T03:00:56;10.00;;;3.80;;
77016;SDS011;65949;53.132;17.930;2023-07-08T03:03:27;9.30;;;3.80;;
77016;SDS011;65949;53.132;17.930;2023-07-08T03:05:59;10.80;;;3.70;;
77016;SDS011;65949;53.132;17.930;2023-07-08T03:08:29;8.20;;;4.20;;
77016;SDS011;65949;53.132;17.930;2023-07-08T03:10:59;8.10;;;3.80;;
77016;SDS011;65949;53.132;17.930;2023-07-08T03:13:28;10.20;;;3.50;;
77016;SDS011;65949;53.132;17.930;2023-07-08T03:15:58;7.90;;;3.60;;
77016;SDS011;65949;53.132;17.930;2023-07-08T03:18:25;7.60;;;3.70;;
77016;SDS011;65949;53.132;17.930;2023-07-08T03:20:54;6.60;;;3.50;;
77016;SDS011;65949;53.132;17.930;2023-07-08T03:23:22;8.20;;;3.70;;
77016;SDS011;65949;53.132;17.930;2023-07-08T03:25:51;9.30;;;4.30;;
77016;SDS011;65949;53.132;17.930;2023-07-08T03:28:18;9.70;;;4.20;;
77016;SDS011;65949;53.132;17.930;2023-07-08T03:30:50;7.00;;;3.80;;
77016;SDS011;65949;53.132;17.930;2023-07-08T03:33:18;7.10;;;4.30;;
77016;SDS011;65949;53.132;17.930;2023-07-08T03:35:45;7.40;;;3.80;;
77016;SDS011;65949;53.132;17.930;2023-07-08T03:38:12;10.00;;;4.40;;
77016;SDS011;65949;53.132;17.930;2023-07-08T03:40:39;8.60;;;3.90;;
77016;SDS011;65949;53.132;17.930;2023-07-08T03:43:05;7.20;;;4.40;;
77016;SDS011;65949;53.132;17.930;2023-07-08T03:45:32;7.90;;;4.70;;
77016;SDS011;65949;53.132;17.930;2023-07-08T03:47:59;7.40;;;4.20;;
77016;SDS011;65949;53.132;17.930;2023-07-08T03:50:26;7.30;;;4.60;;
77016;SDS011;65949;53.132;17.930;2023-07-08T03:52:53;6.90;;;4.40;;
77016;SDS011;65949;53.132;17.930;2023-07-08T03:55:22;7.20;;;4.20;;
77016;SDS011;65949;53.132;17.930;2023-07-08T03:57:49;8.30;;;5.10;;
77016;SDS011;65949;53.132;17.930;2023-07-08T04:00:16;7.80;;;4.70;;
77016;SDS011;65949;53.132;17.930;2023-07-08T04:02:43;8.20;;;4.70;;
77016;SDS011;65949;53.132;17.930;2023-07-08T04:05:19;7.80;;;5.10;;
77016;SDS011;65949;53.132;17.930;2023-07-08T04:07:47;7.70;;;5.00;;
77016;SDS011;65949;53.132;17.930;2023-07-08T04:10:15;9.10;;;5.80;;
77016;SDS011;65949;53.132;17.930;2023-07-08T04:12:43;8.50;;;4.80;;
77016;SDS011;65949;53.132;17.930;2023-07-08T04:15:10;7.90;;;5.10;;
77016;SDS011;65949;53.132;17.930;2023-07-08T04:17:45;9.30;;;5.30;;
77016;SDS011;65949;53.132;17.930;2023-07-08T04:20:15;9.20;;;5.00;;
77016;SDS011;65949;53.132;17.930;2023-07-08T04:22:44;8.80;;;5.70;;
77016;SDS011;65949;53.132;17.930;2023-07-08T04:25:12;9.40;;;5.50;;
77016;SDS011;65949;53.132;17.930;2023-07-08T04:27:40;7.90;;;5.80;;
77016;SDS011;65949;53.132;17.930;2023-07-08T04:30:09;8.60;;;6.10;;
77016;SDS011;65949;53.132;17.930;2023-07-08T04:32:46;10.00;;;6.40;;
77016;SDS011;65949;53.132;17.930;2023-07-08T04:35:12;9.30;;;5.90;;
77016;SDS011;65949;53.132;17.930;2023-07-08T04:37:39;10.70;;;6.40;;
77016;SDS011;65949;53.132;17.930;2023-07-08T04:40:07;9.70;;;6.20;;
77016;SDS011;65949;53.132;17.930;2023-07-08T04:42:42;8.60;;;5.60;;
77016;SDS011;65949;53.132;17.930;2023-07-08T04:45:11;9.00;;;6.60;;
77016;SDS011;65949;53.132;17.930;2023-07-08T04:47:37;8.50;;;6.50;;
77016;SDS011;65949;53.132;17.930;2023-07-08T04:50:04;9.70;;;6.00;;
77016;SDS011;65949;53.132;17.930;2023-07-08T04:52:32;10.90;;;6.10;;
77016;SDS011;65949;53.132;17.930;2023-07-08T04:54:58;9.40;;;6.00;;
77016;SDS011;65949;53.132;17.930;2023-07-08T04:57:25;8.30;;;6.40;;
77016;SDS011;65949;53.132;17.930;2023-07-08T04:59:51;8.00;;;5.70;;
77016;SDS011;65949;53.132;17.930;2023-07-08T05:02:18;8.80;;;6.20;;
77016;SDS011;65949;53.132;17.930;2023-07-08T05:04:46;8.20;;;6.40;;
77016;SDS011;65949;53.132;17.930;2023-07-08T05:07:12;19.40;;;7.00;;
77016;SDS011;65949;53.132;17.930;2023-07-08T05:09:39;10.10;;;6.40;;
77016;SDS011;65949;53.132;17.930;2023-07-08T05:12:06;9.00;;;6.30;;
77016;SDS011;65949;53.132;17.930;2023-07-08T05:14:33;8.80;;;6.10;;
77016;SDS011;65949;53.132;17.930;2023-07-08T05:17:00;11.10;;;6.70;;
77016;SDS011;65949;53.132;17.930;2023-07-08T05:19:26;9.00;;;6.50;;
77016;SDS011;65949;53.132;17.930;2023-07-08T05:21:53;8.30;;;6.60;;
77016;SDS011;65949;53.132;17.930;2023-07-08T05:24:21;9.70;;;6.80;;
77016;SDS011;65949;53.132;17.930;2023-07-08T05:26:47;10.90;;;6.30;;
77016;SDS011;65949;53.132;17.930;2023-07-08T05:29:14;11.90;;;6.40;;
77016;SDS011;65949;53.132;17.930;2023-07-08T05:31:40;9.90;;;5.80;;
77016;SDS011;65949;53.132;17.930;2023-07-08T05:34:07;16.70;;;7.30;;
77016;SDS011;65949;53.132;17.930;2023-07-08T05:36:34;16.60;;;6.50;;
77016;SDS011;65949;53.132;17.930;2023-07-08T05:39:00;10.90;;;6.30;;
77016;SDS011;65949;53.132;17.930;2023-07-08T05:41:27;9.80;;;6.10;;
77016;SDS011;65949;53.132;17.930;2023-07-08T05:43:53;9.50;;;6.30;;
77016;SDS011;65949;53.132;17.930;2023-07-08T05:46:20;10.10;;;6.20;;
77016;SDS011;65949;53.132;17.930;2023-07-08T05:48:47;9.00;;;6.10;;
77016;SDS011;65949;53.132;17.930;2023-07-08T05:51:15;9.00;;;5.30;;
77016;SDS011;65949;53.132;17.930;2023-07-08T05:53:41;8.80;;;5.00;;
77016;SDS011;65949;53.132;17.930;2023-07-08T05:56:08;8.30;;;5.10;;
77016;SDS011;65949;53.132;17.930;2023-07-08T05:58:35;9.70;;;5.70;;
77016;SDS011;65949;53.132;17.930;2023-07-08T06:01:01;8.70;;;5.70;;
77016;SDS011;65949;53.132;17.930;2023-07-08T06:03:28;25.90;;;6.90;;
77016;SDS011;65949;53.132;17.930;2023-07-08T06:05:55;7.70;;;4.50;;
77016;SDS011;65949;53.132;17.930;2023-07-08T06:08:21;8.20;;;5.50;;
77016;SDS011;65949;53.132;17.930;2023-07-08T06:10:49;6.90;;;4.90;;
77016;SDS011;65949;53.132;17.930;2023-07-08T06:13:17;7.20;;;5.10;;
77016;SDS011;65949;53.132;17.930;2023-07-08T06:15:43;10.60;;;5.30;;
77016;SDS011;65949;53.132;17.930;2023-07-08T06:18:10;8.10;;;5.00;;
77016;SDS011;65949;53.132;17.930;2023-07-08T06:20:37;7.30;;;4.70;;
77016;SDS011;65949;53.132;17.930;2023-07-08T06:23:03;6.00;;;4.50;;
77016;SDS011;65949;53.132;17.930;2023-07-08T06:25:31;7.60;;;4.90;;
77016;SDS011;65949;53.132;17.930;2023-07-08T06:27:58;6.80;;;4.30;;
77016;SDS011;65949;53.132;17.930;2023-07-08T06:30:25;6.80;;;3.70;;
77016;SDS011;65949;53.132;17.930;2023-07-08T06:32:52;7.10;;;3.80;;
77016;SDS011;65949;53.132;17.930;2023-07-08T06:35:18;9.00;;;3.40;;
77016;SDS011;65949;53.132;17.930;2023-07-08T06:37:45;9.60;;;4.00;;
77016;SDS011;65949;53.132;17.930;2023-07-08T06:40:12;6.80;;;3.20;;
77016;SDS011;65949;53.132;17.930;2023-07-08T06:42:39;6.50;;;3.00;;
77016;SDS011;65949;53.132;17.930;2023-07-08T06:45:26;7.80;;;3.40;;
77016;SDS011;65949;53.132;17.930;2023-07-08T06:47:52;9.00;;;3.50;;
77016;SDS011;65949;53.132;17.930;2023-07-08T06:50:19;20.70;;;6.70;;
77016;SDS011;65949;53.132;17.930;2023-07-08T06:52:46;9.00;;;4.00;;
77016;SDS011;65949;53.132;17.930;2023-07-08T06:55:12;9.10;;;3.30;;
77016;SDS011;65949;53.132;17.930;2023-07-08T06:57:40;11.40;;;4.60;;
77016;SDS011;65949;53.132;17.930;2023-07-08T07:00:07;20.70;;;4.00;;
77016;SDS011;65949;53.132;17.930;2023-07-08T07:02:36;8.00;;;3.70;;
77016;SDS011;65949;53.132;17.930;2023-07-08T07:05:02;7.00;;;3.30;;
77016;SDS011;65949;53.132;17.930;2023-07-08T07:07:30;9.40;;;4.10;;
77016;SDS011;65949;53.132;17.930;2023-07-08T07:09:57;9.80;;;3.30;;
77016;SDS011;65949;53.132;17.930;2023-07-08T07:12:24;7.90;;;3.90;;
77016;SDS011;65949;53.132;17.930;2023-07-08T07:14:51;6.40;;;3.60;;
77016;SDS011;65949;53.132;17.930;2023-07-08T07:17:20;7.80;;;4.50;;
77016;SDS011;65949;53.132;17.930;2023-07-08T07:19:48;8.20;;;4.20;;
77016;SDS011;65949;53.132;17.930;2023-07-08T07:22:15;7.50;;;4.10;;
77016;SDS011;65949;53.132;17.930;2023-07-08T07:24:42;6.00;;;3.60;;
77016;SDS011;65949;53.132;17.930;2023-07-08T07:27:09;7.70;;;4.10;;
77016;SDS011;65949;53.132;17.930;2023-07-08T07:29:43;9.80;;;3.30;;
77016;SDS011;65949;53.132;17.930;2023-07-08T07:32:15;9.00;;;3.70;;
77016;SDS011;65949;53.132;17.930;2023-07-08T07:34:42;6.40;;;3.30;;
77016;SDS011;65949;53.132;17.930;2023-07-08T07:37:13;9.90;;;3.80;;
77016;SDS011;65949;53.132;17.930;2023-07-08T07:39:41;6.60;;;3.30;;
77016;SDS011;65949;53.132;17.930;2023-07-08T07:42:08;6.30;;;3.70;;
77016;SDS011;65949;53.132;17.930;2023-07-08T07:44:36;6.30;;;3.10;;
77016;SDS011;65949;53.132;17.930;2023-07-08T07:47:06;6.40;;;3.70;;
77016;SDS011;65949;53.132;17.930;2023-07-08T07:49:33;7.10;;;3.50;;
77016;SDS011;65949;53.132;17.930;2023-07-08T07:52:01;6.70;;;3.60;;
77016;SDS011;65949;53.132;17.930;2023-07-08T07:54:28;5.50;;;2.70;;
77016;SDS011;65949;53.132;17.930;2023-07-08T07:56:54;6.30;;;3.20;;
77016;SDS011;65949;53.132;17.930;2023-07-08T07:59:21;7.40;;;3.20;;
77016;SDS011;65949;53.132;17.930;2023-07-08T08:01:48;8.10;;;3.60;;
77016;SDS011;65949;53.132;17.930;2023-07-08T08:04:14;7.10;;;3.90;;
77016;SDS011;65949;53.132;17.930;2023-07-08T08:06:41;11.80;;;4.20;;
77016;SDS011;65949;53.132;17.930;2023-07-08T08:09:07;8.50;;;3.10;;
77016;SDS011;65949;53.132;17.930;2023-07-08T08:11:34;5.60;;;3.40;;
77016;SDS011;65949;53.132;17.930;2023-07-08T08:14:01;6.80;;;3.70;;
77016;SDS011;65949;53.132;17.930;2023-07-08T08:16:30;7.80;;;3.30;;
77016;SDS011;65949;53.132;17.930;2023-07-08T08:18:57;6.30;;;3.00;;
77016;SDS011;65949;53.132;17.930;2023-07-08T08:21:24;7.20;;;3.40;;
77016;SDS011;65949;53.132;17.930;2023-07-08T08:23:50;7.40;;;3.10;;
77016;SDS011;65949;53.132;17.930;2023-07-08T08:26:17;8.00;;;3.40;;
77016;SDS011;65949;53.132;17.930;2023-07-08T08:28:44;6.60;;;3.40;;
77016;SDS011;65949;53.132;17.930;2023-07-08T08:31:10;6.30;;;3.30;;
77016;SDS011;65949;53.132;17.930;2023-07-08T08:33:37;6.90;;;3.10;;
77016;SDS011;65949;53.132;17.930;2023-07-08T08:36:03;5.80;;;3.00;;
77016;SDS011;65949;53.132;17.930;2023-07-08T08:38:30;6.00;;;3.10;;
77016;SDS011;65949;53.132;17.930;2023-07-08T08:40:57;6.10;;;2.80;;
77016;SDS011;65949;53.132;17.930;2023-07-08T08:43:30;6.80;;;3.10;;
77016;SDS011;65949;53.132;17.930;2023-07-08T08:51:33;8.10;;;3.10;;
77016;SDS011;65949;53.132;17.930;2023-07-08T08:54:00;6.40;;;3.80;;
77016;SDS011;65949;53.132;17.930;2023-07-08T08:56:28;6.40;;;3.40;;
77016;SDS011;65949;53.132;17.930;2023-07-08T08:59:27;10.90;;;3.30;;
77016;SDS011;65949;53.132;17.930;2023-07-08T09:05:13;6.40;;;3.30;;
77016;SDS011;65949;53.132;17.930;2023-07-08T09:10:35;7.10;;;2.90;;
77016;SDS011;65949;53.132;17.930;2023-07-08T09:13:13;5.20;;;2.30;;
77016;SDS011;65949;53.132;17.930;2023-07-08T09:15:51;6.50;;;2.90;;
77016;SDS011;65949;53.132;17.930;2023-07-08T09:18:30;5.70;;;3.00;;
77016;SDS011;65949;53.132;17.930;2023-07-08T09:21:13;5.50;;;2.70;;
77016;SDS011;65949;53.132;17.930;2023-07-08T09:23:54;6.70;;;3.30;;
77016;SDS011;65949;53.132;17.930;2023-07-08T09:26:27;5.40;;;2.50;;
77016;SDS011;65949;53.132;17.930;2023-07-08T09:28:56;7.30;;;2.80;;
77016;SDS011;65949;53.132;17.930;2023-07-08T09:31:24;5.80;;;2.50;;
77016;SDS011;65949;53.132;17.930;2023-07-08T09:33:54;6.20;;;3.30;;
77016;SDS011;65949;53.132;17.930;2023-07-08T09:36:32;6.20;;;3.20;;
77016;SDS011;65949;53.132;17.930;2023-07-08T09:38:58;6.20;;;2.70;;
77016;SDS011;65949;53.132;17.930;2023-07-08T09:41:34;5.10;;;2.50;;
77016;SDS011;65949;53.132;17.930;2023-07-08T09:44:06;5.30;;;2.60;;
77016;SDS011;65949;53.132;17.930;2023-07-08T09:46:40;6.80;;;3.20;;
77016;SDS011;65949;53.132;17.930;2023-07-08T09:51:46;6.30;;;2.80;;
77016;SDS011;65949;53.132;17.930;2023-07-08T09:54:17;7.00;;;2.70;;
77016;SDS011;65949;53.132;17.930;2023-07-08T09:56:49;6.70;;;3.60;;
77016;SDS011;65949;53.132;17.930;2023-07-08T09:59:21;5.70;;;3.00;;
77016;SDS011;65949;53.132;17.930;2023-07-08T10:01:54;6.20;;;3.10;;
77016;SDS011;65949;53.132;17.930;2023-07-08T10:04:21;6.00;;;3.60;;
77016;SDS011;65949;53.132;17.930;2023-07-08T10:06:48;7.20;;;3.20;;
77016;SDS011;65949;53.132;17.930;2023-07-08T10:09:18;6.40;;;3.00;;
77016;SDS011;65949;53.132;17.930;2023-07-08T10:12:02;5.70;;;4.00;;
77016;SDS011;65949;53.132;17.930;2023-07-08T10:14:37;5.70;;;3.00;;
77016;SDS011;65949;53.132;17.930;2023-07-08T10:17:12;5.80;;;3.00;;
77016;SDS011;65949;53.132;17.930;2023-07-08T10:19:41;4.90;;;2.90;;
77016;SDS011;65949;53.132;17.930;2023-07-08T10:55:46;5.40;;;2.90;;
77016;SDS011;65949;53.132;17.930;2023-07-08T11:06:49;5.80;;;3.30;;
77016;SDS011;65949;53.132;17.930;2023-07-08T11:09:51;5.40;;;3.30;;
77016;SDS011;65949;53.132;17.930;2023-07-08T11:15:01;7.80;;;3.50;;
77016;SDS011;65949;53.132;17.930;2023-07-08T11:17:32;6.40;;;2.90;;
77016;SDS011;65949;53.132;17.930;2023-07-08T11:23:00;5.20;;;3.10;;
77016;SDS011;65949;53.132;17.930;2023-07-08T11:25:32;6.00;;;3.10;;
77016;SDS011;65949;53.132;17.930;2023-07-08T11:28:00;5.80;;;2.60;;
77016;SDS011;65949;53.132;17.930;2023-07-08T11:30:32;7.10;;;3.30;;
77016;SDS011;65949;53.132;17.930;2023-07-08T11:33:04;5.10;;;3.00;;
77016;SDS011;65949;53.132;17.930;2023-07-08T11:35:43;6.30;;;3.30;;
77016;SDS011;65949;53.132;17.930;2023-07-08T11:38:15;6.60;;;3.10;;
77016;SDS011;65949;53.132;17.930;2023-07-08T11:40:49;6.80;;;3.40;;
77016;SDS011;65949;53.132;17.930;2023-07-08T11:43:19;5.60;;;3.10;;
77016;SDS011;65949;53.132;17.930;2023-07-08T11:45:48;9.20;;;3.30;;
77016;SDS011;65949;53.132;17.930;2023-07-08T11:50:55;6.60;;;3.60;;
77016;SDS011;65949;53.132;17.930;2023-07-08T11:56:28;7.90;;;3.70;;
77016;SDS011;65949;53.132;17.930;2023-07-08T11:58:59;5.70;;;3.40;;
77016;SDS011;65949;53.132;17.930;2023-07-08T12:09:22;6.60;;;4.00;;
77016;SDS011;65949;53.132;17.930;2023-07-08T12:11:58;6.00;;;3.40;;
77016;SDS011;65949;53.132;17.930;2023-07-08T12:14:27;5.40;;;3.20;;
77016;SDS011;65949;53.132;17.930;2023-07-08T12:16:55;7.10;;;3.40;;
77016;SDS011;65949;53.132;17.930;2023-07-08T12:19:22;6.50;;;3.20;;
77016;SDS011;65949;53.132;17.930;2023-07-08T12:21:51;6.50;;;3.40;;
77016;SDS011;65949;53.132;17.930;2023-07-08T12:24:18;8.80;;;3.50;;
77016;SDS011;65949;53.132;17.930;2023-07-08T12:26:52;6.30;;;3.60;;
77016;SDS011;65949;53.132;17.930;2023-07-08T12:29:19;6.70;;;3.40;;
77016;SDS011;65949;53.132;17.930;2023-07-08T12:31:46;6.80;;;3.40;;
77016;SDS011;65949;53.132;17.930;2023-07-08T12:34:13;7.00;;;3.60;;
77016;SDS011;65949;53.132;17.930;2023-07-08T12:36:43;5.80;;;3.70;;
77016;SDS011;65949;53.132;17.930;2023-07-08T12:39:13;7.00;;;3.30;;
77016;SDS011;65949;53.132;17.930;2023-07-08T12:41:43;5.10;;;3.30;;
77016;SDS011;65949;53.132;17.930;2023-07-08T12:44:22;7.50;;;3.30;;
77016;SDS011;65949;53.132;17.930;2023-07-08T12:46:52;9.20;;;4.00;;
77016;SDS011;65949;53.132;17.930;2023-07-08T12:49:21;6.60;;;4.40;;
77016;SDS011;65949;53.132;17.930;2023-07-08T12:51:53;5.90;;;3.40;;
77016;SDS011;65949;53.132;17.930;2023-07-08T12:54:19;6.30;;;3.20;;
77016;SDS011;65949;53.132;17.930;2023-07-08T12:56:46;9.40;;;4.10;;
77016;SDS011;65949;53.132;17.930;2023-07-08T12:59:19;6.50;;;4.00;;
77016;SDS011;65949;53.132;17.930;2023-07-08T13:01:49;8.20;;;3.90;;
77016;SDS011;65949;53.132;17.930;2023-07-08T13:04:18;5.80;;;3.40;;
77016;SDS011;65949;53.132;17.930;2023-07-08T13:06:45;7.20;;;3.90;;
77016;SDS011;65949;53.132;17.930;2023-07-08T13:09:21;7.40;;;3.50;;
77016;SDS011;65949;53.132;17.930;2023-07-08T13:12:03;7.50;;;4.00;;
77016;SDS011;65949;53.132;17.930;2023-07-08T13:14:39;5.90;;;4.20;;
77016;SDS011;65949;53.132;17.930;2023-07-08T13:17:16;7.60;;;3.90;;
77016;SDS011;65949;53.132;17.930;2023-07-08T13:19:43;6.60;;;3.50;;
77016;SDS011;65949;53.132;17.930;2023-07-08T13:22:15;7.70;;;3.60;;
77016;SDS011;65949;53.132;17.930;2023-07-08T13:24:44;6.00;;;3.80;;
77016;SDS011;65949;53.132;17.930;2023-07-08T13:27:13;6.40;;;3.80;;
77016;SDS011;65949;53.132;17.930;2023-07-08T13:29:51;6.40;;;3.30;;
77016;SDS011;65949;53.132;17.930;2023-07-08T13:32:29;6.10;;;4.50;;
77016;SDS011;65949;53.132;17.930;2023-07-08T13:34:58;8.50;;;4.40;;
77016;SDS011;65949;53.132;17.930;2023-07-08T13:37:25;6.30;;;4.00;;
77016;SDS011;65949;53.132;17.930;2023-07-08T13:39:52;7.50;;;4.00;;
77016;SDS011;65949;53.132;17.930;2023-07-08T13:42:20;7.00;;;4.10;;
77016;SDS011;65949;53.132;17.930;2023-07-08T13:44:47;7.30;;;4.40;;
77016;SDS011;65949;53.132;17.930;2023-07-08T13:47:19;7.40;;;4.90;;
77016;SDS011;65949;53.132;17.930;2023-07-08T13:49:48;6.50;;;4.00;;
77016;SDS011;65949;53.132;17.930;2023-07-08T13:52:22;6.40;;;4.50;;
77016;SDS011;65949;53.132;17.930;2023-07-08T13:54:50;8.50;;;4.20;;
77016;SDS011;65949;53.132;17.930;2023-07-08T13:57:21;7.90;;;4.20;;
77016;SDS011;65949;53.132;17.930;2023-07-08T13:59:50;5.70;;;3.70;;
77016;SDS011;65949;53.132;17.930;2023-07-08T14:02:21;7.30;;;3.70;;
77016;SDS011;65949;53.132;17.930;2023-07-08T14:04:50;6.10;;;4.50;;
77016;SDS011;65949;53.132;17.930;2023-07-08T14:07:20;6.60;;;4.10;;
77016;SDS011;65949;53.132;17.930;2023-07-08T14:09:49;8.70;;;3.50;;
77016;SDS011;65949;53.132;17.930;2023-07-08T14:12:16;6.30;;;4.10;;
77016;SDS011;65949;53.132;17.930;2023-07-08T14:14:43;7.30;;;4.20;;
77016;SDS011;65949;53.132;17.930;2023-07-08T14:17:10;6.50;;;4.20;;
77016;SDS011;65949;53.132;17.930;2023-07-08T14:19:47;5.80;;;4.30;;
77016;SDS011;65949;53.132;17.930;2023-07-08T14:24:43;9.40;;;4.30;;
77016;SDS011;65949;53.132;17.930;2023-07-08T14:27:10;6.10;;;3.90;;
77016;SDS011;65949;53.132;17.930;2023-07-08T14:33:21;6.90;;;4.30;;
77016;SDS011;65949;53.132;17.930;2023-07-08T14:35:47;6.90;;;4.10;;
77016;SDS011;65949;53.132;17.930;2023-07-08T14:38:14;8.60;;;4.60;;
77016;SDS011;65949;53.132;17.930;2023-07-08T14:40:41;7.60;;;4.30;;
77016;SDS011;65949;53.132;17.930;2023-07-08T14:43:20;7.10;;;3.80;;
77016;SDS011;65949;53.132;17.930;2023-07-08T14:45:54;7.20;;;3.40;;
77016;SDS011;65949;53.132;17.930;2023-07-08T14:48:23;8.00;;;4.20;;
77016;SDS011;65949;53.132;17.930;2023-07-08T14:50:51;6.50;;;3.80;;
77016;SDS011;65949;53.132;17.930;2023-07-08T14:53:18;7.70;;;4.60;;
77016;SDS011;65949;53.132;17.930;2023-07-08T14:55:46;6.40;;;4.00;;
77016;SDS011;65949;53.132;17.930;2023-07-08T15:00:49;7.30;;;3.70;;
77016;SDS011;65949;53.132;17.930;2023-07-08T15:03:17;7.40;;;4.20;;
77016;SDS011;65949;53.132;17.930;2023-07-08T15:05:44;7.00;;;3.80;;
77016;SDS011;65949;53.132;17.930;2023-07-08T15:08:11;8.90;;;4.40;;
77016;SDS011;65949;53.132;17.930;2023-07-08T15:10:38;6.30;;;3.50;;
77016;SDS011;65949;53.132;17.930;2023-07-08T15:13:08;6.40;;;3.60;;
77016;SDS011;65949;53.132;17.930;2023-07-08T15:15:36;5.80;;;3.40;;
77016;SDS011;65949;53.132;17.930;2023-07-08T15:18:05;7.50;;;3.60;;
77016;SDS011;65949;53.132;17.930;2023-07-08T15:20:38;6.10;;;4.20;;
77016;SDS011;65949;53.132;17.930;2023-07-08T15:23:05;6.50;;;3.90;;
77016;SDS011;65949;53.132;17.930;2023-07-08T15:25:32;6.40;;;3.10;;
77016;SDS011;65949;53.132;17.930;2023-07-08T15:28:02;7.10;;;4.10;;
77016;SDS011;65949;53.132;17.930;2023-07-08T15:30:30;6.60;;;3.70;;
77016;SDS011;65949;53.132;17.930;2023-07-08T15:32:58;7.00;;;3.80;;
77016;SDS011;65949;53.132;17.930;2023-07-08T15:35:27;7.20;;;3.70;;
77016;SDS011;65949;53.132;17.930;2023-07-08T15:38:00;5.00;;;3.20;;
77016;SDS011;65949;53.132;17.930;2023-07-08T15:40:31;5.90;;;3.80;;
77016;SDS011;65949;53.132;17.930;2023-07-08T15:42:59;5.90;;;3.90;;
77016;SDS011;65949;53.132;17.930;2023-07-08T15:45:29;7.30;;;3.60;;
77016;SDS011;65949;53.132;17.930;2023-07-08T15:47:59;6.40;;;4.30;;
77016;SDS011;65949;53.132;17.930;2023-07-08T15:50:26;9.60;;;4.10;;
77016;SDS011;65949;53.132;17.930;2023-07-08T15:52:54;15.10;;;10.40;;
77016;SDS011;65949;53.132;17.930;2023-07-08T15:55:28;8.10;;;3.90;;
77016;SDS011;65949;53.132;17.930;2023-07-08T15:58:10;7.00;;;4.40;;
77016;SDS011;65949;53.132;17.930;2023-07-08T16:00:44;6.30;;;3.70;;
77016;SDS011;65949;53.132;17.930;2023-07-08T16:03:22;6.40;;;4.50;;
77016;SDS011;65949;53.132;17.930;2023-07-08T16:05:54;6.60;;;4.10;;
77016;SDS011;65949;53.132;17.930;2023-07-08T16:08:22;6.10;;;4.20;;
77016;SDS011;65949;53.132;17.930;2023-07-08T16:10:51;8.20;;;4.20;;
77016;SDS011;65949;53.132;17.930;2023-07-08T16:13:32;5.50;;;3.50;;
77016;SDS011;65949;53.132;17.930;2023-07-08T16:16:02;5.90;;;3.40;;